Terminal Aerodrome Forecast
Issued by NWS

Home | Current Version | Previous Version | Text Only | Print | Product List | Glossary On
Versions: 1 2 3 4 5 6 7 8 9 10 11 12 13 14 15 16 17 18 19 20
185
FTUS44 KBMX 240520
TAFTCL
TAF
KTCL 240520Z 2406/2506 00000KT P6SM SCT250
      TEMPO 2409/2412 3SM BR BKN007
     FM241800 18004KT P6SM VCTS SCT050CB=

USA.gov is the U.S. government's official web portal to all federal, state and local government web resources and services.